• Join FlightAware (Why Join?)
  • Login
  • US Flag 
04:01PM EDT


 

Airport Tracker/Info


-or-


 

Live Flight TrackerFlight Track Log ✈ N468QS ✈ 18-Nov-2013 ✈ KPNE - KHPN

Flight Track Log - Related Links

Times and Time Zones

All times are in EST time to prevent confusion due to time zone crossing. See the N468QS flight status page for this flight to view local times or setup timezone preferences in your user account.

Time Position Orientation Groundspeed Altitude Reporting Facility
EST Latitude Longitude Course Direction KTS MPH feet Rate Location/Type
05:27PM 40.0667 -75.0667 237° Southwest 175 201 2,000  Level Philadelphia TRACON
05:28PM 40.0333 -75.1000 217° Southwest 218 251 6,200 3,720 Climbing Philadelphia TRACON
05:29PM 39.9667 -75.0833 169° South 240 276 9,900 1,680 Climbing Philadelphia TRACON
05:31PM 39.8386 -74.9722 146° Southeast 305 351 11,800 600 Climbing New York Center
05:32PM 39.8161 -74.8411 103° East 361 415 12,000 480 Climbing New York Center
05:33PM 39.7986 -74.6806 98° East 392 451 12,800 420 Climbing New York Center
05:34PM 39.8078 -74.5244 86° East 414 476 12,900 60 Climbing New York Center
05:35PM 39.8397 -74.3772 74° East 421 484 13,000  Climbing New York Center
05:36PM 39.8881 -74.2203 68° East 428 493 13,000  Level New York Center
05:37PM 39.9744 -74.1161 43° Northeast 420 483 13,000  Level New York Center
05:38PM 40.0344 -73.9861 59° Northeast 413 475 13,000  Level New York Center
05:39PM 40.0692 -73.8550 71° East 420 483 13,000  Level New York Center
05:41PM 40.0894 -73.5942 84° East 433 498 13,000  Level Boston Center
05:42PM 40.1019 -73.4403 84° East 431 496 13,000  Level Boston Center
05:43PM 40.1269 -73.2892 78° East 427 491 13,000  Level Boston Center
05:44PM 40.2069 -73.1744 48° Northeast 429 494 13,000  Level Boston Center
05:45PM 40.2947 -73.0711 42° Northeast 427 491 13,000 -180 Level Boston Center
05:46PM 40.4000 -72.9444 42° Northeast 429 494 12,700 -660 Descending Boston Center
05:47PM 40.4856 -72.8425 42° Northeast 421 484 11,700 -1,020 Descending Boston Center
05:48PM 40.5647 -72.7464 43° Northeast 399 459 10,700 -840 Descending Boston Center
05:49PM 40.6558 -72.6925 24° Northeast 375 432 10,000 -360 Descending Boston Center
05:50PM 40.7553 -72.6919 360° North 359 413 10,000  Level Boston Center
05:51PM 40.8667 -72.7000 357° North 356 410 10,000 -420 Level New York TRACON
05:52PM 40.9333 -72.7333 339° North 308 354 9,300 -840 Descending New York TRACON
05:53PM 40.9833 -72.8167 308° West 262 302 8,300 -960 Descending New York TRACON
05:54PM 41.0333 -72.9000 309° West 250 288 7,300 -900 Descending New York TRACON
05:55PM 41.0667 -72.9667 304° West 250 288 6,600 -900 Descending New York TRACON
05:56PM 41.1167 -73.0333 315° West 246 283 5,600 -1,020 Descending New York TRACON
05:57PM 41.1500 -73.1167 298° West 243 280 4,600 -780 Descending New York TRACON
05:58PM 41.1667 -73.2000 285° West 234 269 4,100 -300 Descending New York TRACON
05:59PM 41.1667 -73.2833 270° West 233 268 4,100 -540 Level New York TRACON
06:00PM 41.1500 -73.3667 255° West 234 269 3,100 -540 Descending New York TRACON
06:01PM 41.1333 -73.4333 252° West 239 275 3,100 -480 Level New York TRACON
06:02PM 41.0833 -73.4833 217° Southwest 218 251 2,200 -540 Descending New York TRACON
06:03PM 41.0333 -73.5333 217° Southwest 187 215 2,100 -60 Descending New York TRACON
06:04PM 41.0000 -73.5833 229° Southwest 187 215 2,100  Level New York TRACON
06:05PM 40.9833 -73.6333 246° West 166 191 2,100 -300 Level New York TRACON
06:06PM 41.0167 -73.6667 323° Northwest 150 173 1,600 -720 Descending New York TRACON
06:07PM 41.0500 -73.6833 339° North 139 160 800 -840 Descending New York TRACON